Time;durP1;ratioP1;P1;durP2;ratioP2;P2;SDS_P1;SDS_P2;PMS_P1;PMS_P2;Temp;Humidity;BMP_temperature;BMP_pressure;BME280_temperature;BME280_humidity;BME280_pressure;Samples;Min_cycle;Max_cycle;Signal;HPM_P1;HPM_P2
2023/08/15 00:01:33;;;;;;;8.30;4.40;;;;;;;18.30;100.00;98448.19;4173398;28;20669;-73
2023/08/15 00:03:34;;;;;;;3.85;3.45;;;;;;;18.30;100.00;98447.38;4173050;28;20049;-73
2023/08/15 00:05:36;;;;;;;6.80;3.80;;;;;;;18.29;100.00;98448.59;4173376;28;20053;-73
2023/08/15 00:07:36;;;;;;;10.57;3.95;;;;;;;18.28;100.00;98444.22;4173667;28;20041;-73
2023/08/15 00:09:37;;;;;;;5.53;3.75;;;;;;;18.23;100.00;98439.91;4173461;28;20429;-72
2023/08/15 00:11:37;;;;;;;4.47;3.50;;;;;;;18.23;100.00;98445.50;4173878;28;20049;-72
2023/08/15 00:13:37;;;;;;;7.13;3.67;;;;;;;18.23;100.00;98440.72;4173026;28;20055;-73
2023/08/15 00:15:38;;;;;;;4.18;3.40;;;;;;;18.20;100.00;98446.34;4173283;28;20079;-73
2023/08/15 00:17:38;;;;;;;4.10;3.47;;;;;;;18.22;100.00;98433.53;4173276;28;20049;-73
2023/08/15 00:19:39;;;;;;;4.60;3.10;;;;;;;18.24;100.00;98445.09;4173081;28;20080;-73
2023/08/15 00:21:39;;;;;;;7.57;4.45;;;;;;;18.19;100.00;98436.38;4172003;28;20079;-72
2023/08/15 00:23:40;;;;;;;6.95;4.18;;;;;;;18.17;100.00;98447.22;4172767;28;20759;-73
2023/08/15 00:25:42;;;;;;;5.80;3.72;;;;;;;18.16;100.00;98446.44;4173290;28;20599;-73
2023/08/15 00:27:42;;;;;;;8.40;4.30;;;;;;;18.15;100.00;98450.47;4173454;28;20044;-73
2023/08/15 00:29:43;;;;;;;5.88;4.75;;;;;;;18.11;100.00;98440.53;4173311;28;20045;-73
2023/08/15 00:31:43;;;;;;;4.57;3.95;;;;;;;18.03;100.00;98450.28;4173227;28;20037;-73
2023/08/15 00:33:43;;;;;;;5.68;4.20;;;;;;;17.98;100.00;98443.19;4172452;28;20064;-72
2023/08/15 00:35:44;;;;;;;6.18;4.82;;;;;;;17.99;100.00;98444.00;4173081;28;20044;-72
2023/08/15 00:37:44;;;;;;;8.38;5.68;;;;;;;17.96;100.00;98431.66;4173055;28;20071;-73
2023/08/15 00:39:44;;;;;;;5.35;4.20;;;;;;;17.93;100.00;98433.28;4173570;28;20146;-73
2023/08/15 00:41:45;;;;;;;5.88;4.13;;;;;;;17.94;100.00;98439.66;4172507;28;20106;-73
2023/08/15 00:43:45;;;;;;;6.55;4.70;;;;;;;17.89;100.00;98443.75;4172183;28;20489;-73
2023/08/15 00:45:46;;;;;;;7.28;4.35;;;;;;;17.88;100.00;98441.41;4174048;28;20528;-73
2023/08/15 00:47:46;;;;;;;5.47;4.25;;;;;;;17.88;100.00;98450.56;4172630;28;20524;-73
2023/08/15 00:49:47;;;;;;;6.50;3.80;;;;;;;17.85;100.00;98445.03;4173133;28;20056;-73
2023/08/15 00:51:48;;;;;;;4.40;3.65;;;;;;;17.84;100.00;98449.84;4172628;28;20044;-72
2023/08/15 00:53:49;;;;;;;4.75;3.70;;;;;;;17.80;100.00;98446.31;4171812;28;20068;-72
2023/08/15 00:55:51;;;;;;;5.93;4.03;;;;;;;17.79;100.00;98444.75;4172880;28;20060;-72
2023/08/15 00:57:52;;;;;;;6.45;3.17;;;;;;;17.75;100.00;98434.81;4173095;28;20053;-72
2023/08/15 00:59:52;;;;;;;4.03;3.10;;;;;;;17.77;100.00;98437.97;4173138;28;20145;-73
2023/08/15 01:01:52;;;;;;;4.53;3.92;;;;;;;17.72;100.00;98430.09;4172155;28;20052;-72
2023/08/15 01:03:54;;;;;;;4.38;3.90;;;;;;;17.68;100.00;98428.09;4171987;28;20237;-73
2023/08/15 01:05:55;;;;;;;5.72;3.65;;;;;;;17.66;100.00;98438.16;4172543;28;20071;-72
2023/08/15 01:07:56;;;;;;;6.05;5.00;;;;;;;17.62;100.00;98435.41;4171852;28;20090;-72
2023/08/15 01:09:56;;;;;;;5.65;4.15;;;;;;;17.61;100.00;98431.03;4172502;28;20419;-72
2023/08/15 01:12:17;;;;;;;7.18;3.65;;;;;;;17.60;100.00;98432.25;4172607;28;20076;-73
2023/08/15 01:14:21;;;;;;;5.68;4.10;;;;;;;17.57;100.00;98427.50;4171285;28;20072;-73
2023/08/15 01:16:28;;;;;;;3.92;3.55;;;;;;;17.55;100.00;98432.75;4172325;28;20405;-73
2023/08/15 01:18:34;;;;;;;4.60;3.17;;;;;;;17.55;100.00;98435.53;4173042;28;20033;-73
2023/08/15 01:20:37;;;;;;;3.75;3.35;;;;;;;17.49;100.00;98426.06;4171335;28;20052;-73
2023/08/15 01:22:42;;;;;;;;;;;;;;;17.50;100.00;98430.44;4172314;28;20053;-73
2023/08/15 01:24:45;;;;;;;4.07;3.67;;;;;;;17.48;100.00;98430.06;4172374;28;19921;-73
2023/08/15 01:26:45;;;;;;;3.97;3.40;;;;;;;17.46;100.00;98424.13;4172496;28;20049;-73
2023/08/15 01:28:45;;;;;;;5.10;3.85;;;;;;;17.42;100.00;98431.75;4172835;28;20405;-73
2023/08/15 01:30:57;;;;;;;4.10;3.55;;;;;;;17.37;100.00;98427.44;4172810;28;20673;-73
2023/08/15 01:33:15;;;;;;;5.78;4.20;;;;;;;17.36;100.00;98425.84;4171693;28;20159;-73
2023/08/15 01:35:34;;;;;;;4.63;3.40;;;;;;;17.34;100.00;98419.91;4171797;28;20055;-73
2023/08/15 01:37:37;;;;;;;5.35;3.63;;;;;;;17.33;100.00;98409.16;4172439;28;20324;-72
2023/08/15 01:39:40;;;;;;;4.55;3.58;;;;;;;17.34;100.00;98397.53;4171566;28;20037;-73
2023/08/15 01:41:44;;;;;;;4.65;3.85;;;;;;;17.33;100.00;98404.34;4172555;28;20488;-73
2023/08/15 01:43:46;;;;;;;6.28;3.95;;;;;;;17.31;100.00;98401.19;4171736;28;20106;-72
2023/08/15 01:45:47;;;;;;;6.30;3.55;;;;;;;17.27;100.00;98399.66;4171573;28;20044;-72
2023/08/15 01:47:48;;;;;;;4.53;3.80;;;;;;;17.27;100.00;98403.25;4172420;28;20148;-72
2023/08/15 01:49:48;;;;;;;5.07;3.13;;;;;;;17.27;100.00;98408.81;4172787;28;20049;-73
2023/08/15 01:51:48;;;;;;;7.63;4.65;;;;;;;17.23;100.00;98407.31;4172394;28;20488;-72
2023/08/15 01:53:49;;;;;;;4.32;3.92;;;;;;;17.20;100.00;98408.94;4171263;28;20119;-72
2023/08/15 01:55:49;;;;;;;4.75;3.60;;;;;;;17.17;100.00;98404.22;4172361;28;20057;-72
2023/08/15 01:57:49;;;;;;;5.20;4.22;;;;;;;17.16;100.00;98397.03;4172489;28;20049;-72
2023/08/15 01:59:50;;;;;;;13.30;3.88;;;;;;;17.14;100.00;98402.28;4171774;28;20064;-73
2023/08/15 02:01:50;;;;;;;6.10;4.10;;;;;;;17.06;100.00;98403.59;4172462;28;20080;-73
2023/08/15 02:03:50;;;;;;;4.50;4.03;;;;;;;17.04;100.00;98403.22;4171325;28;20496;-73
2023/08/15 02:05:51;;;;;;;5.38;3.15;;;;;;;16.99;100.00;98400.91;4171944;28;20151;-73
2023/08/15 02:07:51;;;;;;;4.88;2.80;;;;;;;16.98;100.00;98399.34;4172742;28;20463;-73
2023/08/15 02:09:51;;;;;;;3.75;2.30;;;;;;;16.97;100.00;98406.13;4172159;28;20044;-73
2023/08/15 02:11:52;;;;;;;4.03;2.70;;;;;;;16.96;100.00;98401.75;4172603;28;20041;-73
2023/08/15 02:13:54;;;;;;;3.85;3.45;;;;;;;16.95;100.00;98408.53;4171652;28;20469;-72
2023/08/15 02:15:54;;;;;;;4.43;3.10;;;;;;;16.89;100.00;98399.06;4171825;28;20408;-72
2023/08/15 02:17:54;;;;;;;5.53;4.20;;;;;;;16.90;100.00;98397.84;4172470;28;20045;-73
2023/08/15 02:19:55;;;;;;;3.78;3.00;;;;;;;16.86;100.00;98389.50;4172308;28;20055;-72
2023/08/15 02:21:55;;;;;;;3.25;2.90;;;;;;;16.87;100.00;98395.88;4172532;28;20132;-73
2023/08/15 02:23:55;;;;;;;4.80;2.78;;;;;;;16.82;100.00;98397.97;4171187;28;20033;-73
2023/08/15 02:25:56;;;;;;;4.97;4.25;;;;;;;16.81;100.00;98390.00;4171276;28;20045;-73
2023/08/15 02:27:56;;;;;;;6.22;4.53;;;;;;;16.81;100.00;98396.38;4172128;28;20403;-73
2023/08/15 02:29:56;;;;;;;8.95;4.88;;;;;;;16.76;100.00;98391.25;4171802;28;20037;-73
2023/08/15 02:31:57;;;;;;;6.93;5.32;;;;;;;16.76;100.00;98394.06;4172390;28;20049;-72
2023/08/15 02:33:57;;;;;;;6.28;4.22;;;;;;;16.73;100.00;98397.69;4171396;28;20127;-73
2023/08/15 02:36:04;;;;;;;4.88;4.13;;;;;;;16.71;100.00;98388.13;4172020;28;20481;-73
2023/08/15 02:38:04;;;;;;;4.57;4.18;;;;;;;16.66;100.00;98385.81;4171732;28;20183;-73
2023/08/15 02:40:08;;;;;;;6.32;3.92;;;;;;;16.63;100.00;98384.63;4171880;28;20505;-73
2023/08/15 02:42:08;;;;;;;7.45;4.18;;;;;;;16.61;100.00;98380.69;4171899;28;20029;-73
2023/08/15 02:44:09;;;;;;;6.47;4.60;;;;;;;16.56;100.00;98385.53;4172414;28;20612;-73
2023/08/15 02:46:09;;;;;;;5.03;4.10;;;;;;;16.57;100.00;98383.53;4174057;28;20393;-73
2023/08/15 02:48:10;;;;;;;4.35;3.70;;;;;;;16.55;100.00;98375.59;4171359;28;20049;-73
2023/08/15 02:50:11;;;;;;;5.90;4.20;;;;;;;16.56;100.00;98395.91;4172737;28;20082;-73
2023/08/15 02:52:11;;;;;;;4.38;3.83;;;;;;;16.55;100.00;98388.75;4174386;28;20435;-72
2023/08/15 02:54:12;;;;;;;5.40;4.18;;;;;;;16.52;100.00;98393.16;4173823;28;20029;-72
2023/08/15 02:56:12;;;;;;;4.85;3.58;;;;;;;16.55;100.00;98391.53;4173249;28;20112;-73
2023/08/15 02:58:12;;;;;;;5.68;3.97;;;;;;;16.57;100.00;98391.91;4173965;28;20112;-73
2023/08/15 03:00:13;;;;;;;10.02;4.60;;;;;;;16.56;100.00;98385.53;4173687;28;20172;-73
2023/08/15 03:02:15;;;;;;;4.38;3.63;;;;;;;16.52;100.00;98384.00;4174084;28;20064;-73
2023/08/15 03:04:15;;;;;;;7.20;4.28;;;;;;;16.43;100.00;98381.72;4173540;28;20079;-73
2023/08/15 03:06:16;;;;;;;5.07;4.25;;;;;;;16.43;100.00;98384.50;4173085;28;20461;-73
2023/08/15 03:08:16;;;;;;;6.85;4.13;;;;;;;16.43;100.00;98392.88;4173687;28;20067;-73
2023/08/15 03:10:16;;;;;;;6.18;4.28;;;;;;;16.39;100.00;98383.00;4174244;28;20365;-73
2023/08/15 03:12:17;;;;;;;5.93;4.65;;;;;;;16.40;100.00;98384.56;4171927;28;20384;-72
2023/08/15 03:14:17;;;;;;;6.57;4.72;;;;;;;16.40;100.00;98396.53;4172848;28;20083;-73
2023/08/15 03:16:17;;;;;;;7.63;4.80;;;;;;;16.40;100.00;98379.78;4174163;28;20366;-73
2023/08/15 03:18:18;;;;;;;16.20;5.22;;;;;;;16.39;100.00;98383.78;4174462;28;20036;-73
2023/08/15 03:20:19;;;;;;;7.30;4.75;;;;;;;16.37;100.00;98388.19;4174026;28;20100;-72
2023/08/15 03:22:19;;;;;;;5.53;4.13;;;;;;;16.31;100.00;98387.88;4171887;28;20388;-72
2023/08/15 03:24:19;;;;;;;16.70;4.85;;;;;;;16.31;100.00;98390.66;4173324;28;20330;-73
2023/08/15 03:26:19;;;;;;;7.43;4.78;;;;;;;16.27;100.00;98389.91;4172982;28;20103;-73
2023/08/15 03:28:20;;;;;;;5.95;4.25;;;;;;;16.24;100.00;98388.75;4173912;28;22928;-73
2023/08/15 03:30:20;;;;;;;6.93;5.13;;;;;;;16.23;100.00;98398.34;4173417;28;20068;-73
2023/08/15 03:32:20;;;;;;;6.07;4.78;;;;;;;16.21;100.00;98394.38;4173060;28;20049;-73
2023/08/15 03:34:21;;;;;;;8.82;4.80;;;;;;;16.20;100.00;98392.78;4173564;28;20400;-73
2023/08/15 03:36:22;;;;;;;6.60;4.72;;;;;;;16.20;100.00;98390.78;4173897;28;20104;-72
2023/08/15 03:38:22;;;;;;;5.22;4.00;;;;;;;16.24;100.00;98397.13;4174470;28;20485;-73
2023/08/15 03:40:22;;;;;;;6.25;3.95;;;;;;;16.26;100.00;98383.53;4173947;28;20538;-73
2023/08/15 03:42:23;;;;;;;5.90;4.13;;;;;;;16.31;100.00;98389.88;4173778;28;20547;-73
2023/08/15 03:44:23;;;;;;;5.72;4.22;;;;;;;16.33;100.00;98382.66;4171194;28;20041;-73
2023/08/15 03:46:23;;;;;;;9.77;5.18;;;;;;;16.33;100.00;98390.25;4172802;28;20045;-73
2023/08/15 03:48:24;;;;;;;6.78;4.40;;;;;;;16.29;100.00;98379.09;4172529;28;20056;-73
2023/08/15 03:50:24;;;;;;;12.68;5.78;;;;;;;16.26;100.00;98391.13;4172065;28;20064;-73
2023/08/15 03:52:25;;;;;;;9.77;5.15;;;;;;;16.22;100.00;98388.38;4172444;28;20076;-73
2023/08/15 03:54:25;;;;;;;7.88;5.82;;;;;;;16.19;100.00;98392.00;4171783;28;20049;-73
2023/08/15 03:56:25;;;;;;;10.93;5.93;;;;;;;16.18;100.00;98390.41;4172203;28;20152;-73
2023/08/15 03:58:25;;;;;;;8.35;4.93;;;;;;;16.17;100.00;98396.41;4173175;28;20064;-73
2023/08/15 04:00:26;;;;;;;9.70;5.47;;;;;;;16.21;100.00;98400.72;4172645;28;20179;-72
2023/08/15 04:02:26;;;;;;;7.97;5.32;;;;;;;16.22;100.00;98398.75;4171962;28;20130;-73
2023/08/15 04:04:26;;;;;;;8.40;5.20;;;;;;;16.19;100.00;98394.78;4172801;28;20116;-73
2023/08/15 04:06:27;;;;;;;8.25;4.88;;;;;;;16.16;100.00;98390.06;4173409;28;20049;-73
2023/08/15 04:08:27;;;;;;;8.57;5.10;;;;;;;16.16;100.00;98392.84;4173687;28;20072;-73
2023/08/15 04:10:27;;;;;;;7.38;4.82;;;;;;;16.18;100.00;98386.84;4174099;28;20068;-73
2023/08/15 04:12:28;;;;;;;9.70;4.90;;;;;;;16.22;100.00;98388.38;4173444;28;20044;-73
2023/08/15 04:14:28;;;;;;;6.22;4.55;;;;;;;16.22;100.00;98382.00;4172719;28;20041;-73
2023/08/15 04:16:28;;;;;;;8.45;5.15;;;;;;;16.20;100.00;98387.19;4173173;28;20052;-73
2023/08/15 04:18:28;;;;;;;7.05;4.30;;;;;;;16.19;100.00;98391.22;4174001;28;20491;-73
2023/08/15 04:20:29;;;;;;;6.95;4.50;;;;;;;16.20;100.00;98388.00;4173612;28;20130;-73
2023/08/15 04:22:29;;;;;;;9.63;5.22;;;;;;;16.21;100.00;98383.97;4172688;28;20045;-73
2023/08/15 04:24:29;;;;;;;8.20;4.43;;;;;;;16.22;100.00;98395.97;4173328;28;20085;-73
2023/08/15 04:26:30;;;;;;;6.57;5.43;;;;;;;16.24;100.00;98405.50;4172819;28;20552;-73
2023/08/15 04:28:31;;;;;;;7.32;5.18;;;;;;;16.28;100.00;98405.44;4173485;28;20041;-73
2023/08/15 04:30:31;;;;;;;7.40;4.80;;;;;;;16.32;100.00;98402.63;4173687;28;20051;-73
2023/08/15 04:32:32;;;;;;;6.85;5.05;;;;;;;16.35;100.00;98405.34;4172593;28;20098;-73
2023/08/15 04:34:32;;;;;;;7.80;5.70;;;;;;;16.39;100.00;98402.53;4173172;28;20045;-73
2023/08/15 04:36:32;;;;;;;6.82;5.35;;;;;;;16.42;100.00;98396.91;4171703;28;20259;-73
2023/08/15 04:38:33;;;;;;;8.50;4.95;;;;;;;16.44;100.00;98396.47;4173487;28;20618;-73
2023/08/15 04:40:39;;;;;;;6.55;5.28;;;;;;;16.45;100.00;98395.25;4172739;28;20056;-73
2023/08/15 04:42:41;;;;;;;7.00;5.40;;;;;;;16.40;100.00;98399.31;4172323;28;20037;-73
2023/08/15 04:44:41;;;;;;;18.35;6.35;;;;;;;16.39;100.00;98396.94;4172734;28;20067;-73
2023/08/15 04:46:42;;;;;;;17.25;6.38;;;;;;;16.32;100.00;98400.63;4173972;28;20203;-73
2023/08/15 04:48:42;;;;;;;6.85;5.45;;;;;;;16.29;100.00;98402.22;4173172;28;20127;-72
2023/08/15 04:50:42;;;;;;;9.95;5.50;;;;;;;16.24;100.00;98401.91;4173050;28;20091;-73
2023/08/15 04:52:43;;;;;;;13.25;5.60;;;;;;;16.19;100.00;98403.16;4172452;28;20352;-73
2023/08/15 04:54:43;;;;;;;8.80;5.03;;;;;;;16.17;100.00;98405.59;4172525;28;20067;-73
2023/08/15 04:56:43;;;;;;;11.85;5.40;;;;;;;16.15;100.00;98410.00;4172475;28;20129;-72
2023/08/15 04:58:43;;;;;;;8.63;4.53;;;;;;;16.17;100.00;98413.16;4174514;28;20142;-73
2023/08/15 05:00:44;;;;;;;6.80;4.93;;;;;;;16.18;100.00;98398.78;4172684;28;20368;-72
2023/08/15 05:02:46;;;;;;;8.13;5.05;;;;;;;16.18;100.00;98404.38;4172433;28;20033;-73
2023/08/15 05:04:46;;;;;;;9.18;4.97;;;;;;;16.20;100.00;98407.53;4172362;28;20102;-73
2023/08/15 05:06:46;;;;;;;7.20;5.18;;;;;;;16.24;100.00;98408.28;4172515;28;20052;-72
2023/08/15 05:08:47;;;;;;;5.72;4.53;;;;;;;16.27;100.00;98415.03;4172635;28;20095;-73
2023/08/15 05:10:47;;;;;;;9.30;5.68;;;;;;;16.33;100.00;98410.56;4172551;28;20538;-73
2023/08/15 05:12:47;;;;;;;5.95;5.35;;;;;;;16.38;100.00;98420.47;4172591;28;20040;-73
2023/08/15 05:14:48;;;;;;;10.90;5.43;;;;;;;16.41;100.00;98425.25;4172126;28;20041;-73
2023/08/15 05:16:50;;;;;;;9.55;5.13;;;;;;;16.48;100.00;98422.34;4172816;28;20053;-73
2023/08/15 05:18:50;;;;;;;6.32;4.80;;;;;;;16.53;100.00;98425.47;4172595;28;20049;-73
2023/08/15 05:20:50;;;;;;;7.68;5.45;;;;;;;16.57;100.00;98429.00;4172601;28;20052;-73
2023/08/15 05:22:50;;;;;;;6.35;5.50;;;;;;;16.63;100.00;98431.31;4171660;28;20052;-73
2023/08/15 05:24:51;;;;;;;6.38;5.32;;;;;;;16.66;100.00;98430.50;4171562;28;20053;-73
2023/08/15 05:26:51;;;;;;;6.85;6.07;;;;;;;16.70;100.00;98426.47;4172689;28;20057;-73
2023/08/15 05:28:52;;;;;;;8.88;5.60;;;;;;;16.73;100.00;98425.63;4171731;28;20504;-73
2023/08/15 05:30:52;;;;;;;7.30;5.78;;;;;;;16.77;100.00;98417.19;4171791;28;20041;-73
2023/08/15 05:32:52;;;;;;;6.90;5.57;;;;;;;16.81;100.00;98431.91;4171790;28;20041;-73
2023/08/15 05:34:53;;;;;;;6.65;5.40;;;;;;;16.88;100.00;98442.19;4171047;28;20139;-73
2023/08/15 05:36:53;;;;;;;7.05;5.43;;;;;;;16.91;100.00;98442.13;4171794;28;20472;-73
2023/08/15 05:38:53;;;;;;;6.22;5.18;;;;;;;16.98;100.00;98430.06;4171975;28;20469;-73
2023/08/15 05:40:54;;;;;;;11.98;7.25;;;;;;;17.05;100.00;98439.16;4171699;28;20103;-73
2023/08/15 05:42:54;;;;;;;7.18;6.28;;;;;;;17.15;100.00;98434.59;4171293;28;20049;-73
2023/08/15 05:44:54;;;;;;;10.80;6.97;;;;;;;17.28;100.00;98438.38;4171999;28;20427;-73
2023/08/15 05:46:54;;;;;;;8.02;5.97;;;;;;;17.37;100.00;98424.63;4172104;28;20061;-73
2023/08/15 05:48:55;;;;;;;7.13;6.28;;;;;;;17.47;100.00;98433.28;4172447;28;20126;-73
2023/08/15 05:50:55;;;;;;;8.10;7.05;;;;;;;17.50;100.00;98438.03;4172269;28;20057;-73
2023/08/15 05:52:55;;;;;;;7.03;6.32;;;;;;;17.56;100.00;98441.94;4171948;28;20073;-73
2023/08/15 05:54:56;;;;;;;6.75;6.05;;;;;;;17.64;100.00;98448.97;4172275;28;20045;-73
2023/08/15 05:56:56;;;;;;;11.73;9.27;;;;;;;17.65;100.00;98447.75;4172196;28;20436;-73
2023/08/15 05:58:57;;;;;;;9.07;6.32;;;;;;;17.68;100.00;98453.28;4172526;28;20044;-73
2023/08/15 06:00:57;;;;;;;6.65;5.95;;;;;;;17.74;100.00;98455.63;4172050;28;20037;-73
2023/08/15 06:02:58;;;;;;;6.15;5.55;;;;;;;17.84;100.00;98463.84;4171635;28;20076;-73
2023/08/15 06:04:58;;;;;;;8.63;6.38;;;;;;;17.93;100.00;98466.84;4172835;28;20064;-73
2023/08/15 06:06:59;;;;;;;7.25;6.10;;;;;;;18.11;100.00;98476.94;4172777;28;20049;-73
2023/08/15 06:08:59;;;;;;;6.78;5.88;;;;;;;18.26;100.00;98495.06;4170612;28;20191;-73
2023/08/15 06:11:00;;;;;;;6.15;5.65;;;;;;;18.36;100.00;98502.44;4172296;28;20048;-73
2023/08/15 06:13:00;;;;;;;6.55;5.93;;;;;;;18.42;100.00;98509.16;4171723;28;20049;-73
2023/08/15 06:15:01;;;;;;;6.70;6.10;;;;;;;18.52;100.00;98513.75;4172302;28;20053;-73
2023/08/15 06:17:01;;;;;;;8.45;6.97;;;;;;;18.57;100.00;98520.88;4172250;28;20234;-73
2023/08/15 06:19:01;;;;;;;7.93;7.13;;;;;;;18.59;100.00;98520.44;4175005;28;20106;-72
2023/08/15 06:21:01;;;;;;;10.68;7.47;;;;;;;18.74;100.00;98532.97;4175300;28;20049;-73
2023/08/15 06:23:02;;;;;;;7.63;6.93;;;;;;;18.78;100.00;98520.47;4174313;28;20515;-73
2023/08/15 06:25:02;;;;;;;8.85;7.90;;;;;;;18.78;100.00;98525.25;4175733;28;20045;-73
2023/08/15 06:27:03;;;;;;;8.32;7.13;;;;;;;18.84;100.00;98529.16;4175692;28;20076;-73
2023/08/15 06:29:04;;;;;;;9.48;7.25;;;;;;;18.90;100.00;98523.84;4174939;28;20069;-73
2023/08/15 06:31:05;;;;;;;11.97;9.07;;;;;;;18.94;100.00;98521.72;4175600;28;20080;-73
2023/08/15 06:33:05;;;;;;;10.05;9.05;;;;;;;19.01;100.00;98533.59;4175278;28;20044;-73
2023/08/15 06:35:06;;;;;;;9.75;8.65;;;;;;;19.15;100.00;98537.31;4175422;28;20069;-73
2023/08/15 06:37:06;;;;;;;10.07;9.07;;;;;;;19.20;100.00;98523.56;4175028;28;20540;-73
2023/08/15 06:39:06;;;;;;;12.00;9.48;;;;;;;19.27;100.00;98523.38;4175506;28;20073;-73
2023/08/15 06:41:07;;;;;;;10.07;9.07;;;;;;;19.29;100.00;98523.75;4174841;28;20041;-73
2023/08/15 06:43:07;;;;;;;9.70;8.73;;;;;;;19.36;100.00;98525.59;4174672;28;20078;-73
2023/08/15 06:45:11;;;;;;;12.23;10.00;;;;;;;19.31;100.00;98535.34;4176372;28;20465;-73
2023/08/15 06:47:11;;;;;;;15.40;10.32;;;;;;;19.32;100.00;98550.16;4175363;28;20489;-73
2023/08/15 06:49:12;;;;;;;10.63;9.52;;;;;;;19.32;100.00;98604.22;4174923;28;20056;-73
2023/08/15 06:51:12;;;;;;;10.63;9.20;;;;;;;19.41;100.00;98595.22;4174574;28;20226;-73
2023/08/15 06:53:12;;;;;;;12.82;9.23;;;;;;;19.49;100.00;98598.66;4175120;28;20356;-73
2023/08/15 06:55:13;;;;;;;9.98;8.82;;;;;;;19.57;100.00;98589.69;4161829;28;20048;-73
2023/08/15 06:57:13;;;;;;;11.63;9.15;;;;;;;19.59;100.00;98595.63;4174447;28;20048;-73
2023/08/15 06:59:13;;;;;;;10.10;8.30;;;;;;;19.56;100.00;98593.72;4175561;28;20075;-73
2023/08/15 07:01:14;;;;;;;7.78;7.03;;;;;;;19.63;100.00;98598.38;4174931;28;20059;-73
2023/08/15 07:03:15;;;;;;;6.45;5.70;;;;;;;19.65;100.00;98595.91;4174291;28;20061;-73
2023/08/15 07:05:16;;;;;;;5.87;4.60;;;;;;;19.61;100.00;98596.00;4174342;28;20043;-73
2023/08/15 07:07:16;;;;;;;5.60;4.85;;;;;;;19.57;100.00;98580.47;4175087;28;20112;-73
2023/08/15 07:09:16;;;;;;;4.40;4.00;;;;;;;19.53;100.00;98577.72;4174967;28;20033;-73
2023/08/15 07:11:16;;;;;;;6.20;4.50;;;;;;;19.51;100.00;98562.53;4174664;28;20049;-73
2023/08/15 07:13:17;;;;;;;4.55;3.92;;;;;;;19.44;100.00;98552.25;4174136;28;20045;-73
2023/08/15 07:15:17;;;;;;;5.65;3.88;;;;;;;19.39;100.00;98550.00;4174542;28;20056;-73
2023/08/15 07:17:17;;;;;;;5.30;3.80;;;;;;;19.36;100.00;98560.06;4174518;28;20045;-73
2023/08/15 07:19:18;;;;;;;6.22;4.07;;;;;;;19.32;100.00;98555.75;4175037;28;20288;-73
2023/08/15 07:21:18;;;;;;;4.63;4.22;;;;;;;19.30;100.00;98549.81;4174174;28;20045;-73
2023/08/15 07:23:20;;;;;;;9.40;6.53;;;;;;;19.32;100.00;98542.53;4174152;28;20080;-73
2023/08/15 07:25:20;;;;;;;6.03;5.30;;;;;;;19.32;100.00;98556.53;4174435;28;20382;-73
2023/08/15 07:27:21;;;;;;;7.78;4.45;;;;;;;19.30;100.00;98559.00;4174549;28;20045;-73
2023/08/15 07:29:21;;;;;;;4.45;4.05;;;;;;;19.28;100.00;98552.22;4173604;28;20045;-73
2023/08/15 07:31:22;;;;;;;5.20;4.35;;;;;;;19.32;100.00;98550.94;4173185;28;20415;-73
2023/08/15 07:33:22;;;;;;;6.28;4.03;;;;;;;19.34;100.00;98542.09;4174030;28;20190;-73
2023/08/15 07:35:23;;;;;;;4.05;3.60;;;;;;;19.34;100.00;98536.47;4173552;28;20563;-73
2023/08/15 07:37:23;;;;;;;5.00;4.20;;;;;;;19.38;100.00;98542.00;4174467;28;20037;-73
2023/08/15 07:39:23;;;;;;;7.60;3.72;;;;;;;19.40;100.00;98542.38;4174141;28;20130;-73
2023/08/15 07:41:24;;;;;;;10.15;4.22;;;;;;;19.45;100.00;98534.22;4174295;28;20516;-73
2023/08/15 07:43:24;;;;;;;5.55;3.95;;;;;;;19.51;100.00;98526.06;4173411;28;20606;-73
2023/08/15 07:45:24;;;;;;;4.15;3.75;;;;;;;19.57;100.00;98538.38;4173846;28;20048;-73
2023/08/15 07:47:25;;;;;;;4.18;3.78;;;;;;;19.64;100.00;98530.59;4174573;28;20053;-73
2023/08/15 07:49:25;;;;;;;4.70;4.20;;;;;;;19.73;100.00;98544.00;4173613;28;20053;-73
2023/08/15 07:51:26;;;;;;;4.50;4.00;;;;;;;19.78;100.00;98548.31;4174226;28;20469;-73
2023/08/15 07:53:26;;;;;;;4.60;4.20;;;;;;;19.83;100.00;98545.75;4173583;28;20071;-73
2023/08/15 07:55:30;;;;;;;4.68;4.28;;;;;;;19.89;100.00;98552.44;4173982;28;20378;-73
2023/08/15 07:57:30;;;;;;;4.38;3.53;;;;;;;20.02;100.00;98549.69;4173933;28;20040;-73
2023/08/15 07:59:31;;;;;;;4.10;3.42;;;;;;;20.02;100.00;98551.72;4173680;28;20132;-73
2023/08/15 08:01:31;;;;;;;4.80;3.83;;;;;;;19.98;100.00;98543.38;4173913;28;20144;-73
2023/08/15 08:03:32;;;;;;;3.97;3.47;;;;;;;20.09;100.00;98540.28;4172947;28;20117;-73
2023/08/15 08:05:32;;;;;;;4.72;3.47;;;;;;;20.16;100.00;98540.13;4174025;28;20149;-73
2023/08/15 08:07:34;;;;;;;5.45;4.15;;;;;;;20.34;100.00;98534.03;4173856;28;20248;-73
2023/08/15 08:09:34;;;;;;;4.28;3.50;;;;;;;20.42;100.00;98541.81;4173946;28;20052;-73
2023/08/15 08:11:35;;;;;;;5.82;3.53;;;;;;;20.47;100.00;98537.72;4173908;28;20052;-74
2023/08/15 08:13:35;;;;;;;5.18;3.67;;;;;;;20.56;100.00;98537.06;4172566;28;20091;-73
2023/08/15 08:15:35;;;;;;;4.97;3.78;;;;;;;20.59;100.00;98534.16;4174118;28;20099;-73
2023/08/15 08:17:36;;;;;;;4.65;3.78;;;;;;;20.64;100.00;98542.06;4173637;28;20494;-73
2023/08/15 08:19:36;;;;;;;8.80;4.18;;;;;;;20.75;100.00;98544.56;4173284;28;20065;-73
2023/08/15 08:21:36;;;;;;;4.70;3.97;;;;;;;20.82;100.00;98532.31;4173574;28;20048;-73
2023/08/15 08:23:37;;;;;;;6.45;4.70;;;;;;;20.92;100.00;98517.16;4172601;28;20041;-73
2023/08/15 08:25:37;;;;;;;4.80;4.30;;;;;;;21.06;100.00;98515.94;4173691;28;20065;-73
2023/08/15 08:27:38;;;;;;;4.78;4.30;;;;;;;21.13;100.00;98515.75;4173583;28;20311;-73
2023/08/15 08:29:38;;;;;;;4.75;4.35;;;;;;;21.21;100.00;98523.50;4173487;28;20041;-73
2023/08/15 08:31:39;;;;;;;6.15;5.40;;;;;;;21.32;100.00;98537.28;4173377;28;20136;-74
2023/08/15 08:33:40;;;;;;;14.30;6.23;;;;;;;21.42;100.00;98527.69;4172386;28;20091;-74
2023/08/15 08:35:40;;;;;;;5.90;5.13;;;;;;;21.49;100.00;98530.31;4173705;28;20279;-73
2023/08/15 08:37:41;;;;;;;5.50;5.00;;;;;;;21.58;100.00;98526.81;4173301;28;20495;-73
2023/08/15 08:39:42;;;;;;;6.15;5.07;;;;;;;21.67;100.00;98523.31;4173145;28;20053;-73
2023/08/15 08:41:42;;;;;;;5.72;5.03;;;;;;;21.82;100.00;98528.03;4172749;28;20098;-73
2023/08/15 08:43:43;;;;;;;6.00;5.45;;;;;;;21.94;100.00;98523.63;4172406;28;20037;-73
2023/08/15 08:45:48;;;;;;;6.53;5.18;;;;;;;22.02;100.00;98535.44;4159221;28;20496;-73
2023/08/15 08:47:48;;;;;;;7.22;5.55;;;;;;;22.12;100.00;98515.38;4172509;28;20055;-73
2023/08/15 08:49:51;;;;;;;8.98;5.50;;;;;;;22.13;100.00;98518.97;4173031;28;20049;-73
2023/08/15 08:51:51;;;;;;;;;;;;;;;22.17;100.00;98525.28;4172517;28;20135;-73
2023/08/15 08:53:52;;;;;;;5.60;5.10;;;;;;;22.21;100.00;98522.34;4172581;28;19963;-73
2023/08/15 08:55:53;;;;;;;8.35;5.00;;;;;;;22.27;100.00;98524.13;4172831;28;20275;-73
2023/08/15 08:57:54;;;;;;;5.50;4.95;;;;;;;22.33;100.00;98516.66;4173612;28;20049;-73
2023/08/15 08:59:56;;;;;;;6.45;5.53;;;;;;;22.41;100.00;98529.25;4172611;28;20048;-73
2023/08/15 09:01:57;;;;;;;8.43;4.95;;;;;;;22.52;100.00;98530.91;4172851;28;20049;-73
2023/08/15 09:03:57;;;;;;;6.57;5.72;;;;;;;22.60;100.00;98524.56;4172331;28;20063;-73
2023/08/15 09:05:58;;;;;;;6.82;4.50;;;;;;;22.66;100.00;98521.94;4172858;28;20041;-73
2023/08/15 09:07:58;;;;;;;6.22;5.00;;;;;;;22.74;100.00;98525.28;4173045;28;20492;-74
2023/08/15 09:09:59;;;;;;;6.90;4.75;;;;;;;22.77;100.00;98522.34;4172621;28;20049;-74
2023/08/15 09:11:59;;;;;;;5.72;4.80;;;;;;;22.87;100.00;98523.22;4173150;28;20451;-73
2023/08/15 09:14:03;;;;;;;8.15;4.40;;;;;;;22.90;100.00;98513.81;4172093;28;20037;-73
2023/08/15 09:16:03;;;;;;;7.65;4.80;;;;;;;22.97;100.00;98522.00;4172063;28;20169;-74
2023/08/15 09:18:05;;;;;;;7.07;4.47;;;;;;;23.05;100.00;98528.97;4172495;28;20313;-74
2023/08/15 09:20:11;;;;;;;7.63;4.43;;;;;;;23.09;100.00;98528.84;4173334;28;20028;-74
2023/08/15 09:22:20;;;;;;;6.75;3.53;;;;;;;23.11;100.00;98527.13;4172669;28;20028;-74